Time;durP1;ratioP1;P1;durP2;ratioP2;P2;SDS_P1;SDS_P2;PMS_P1;PMS_P2;Temp;Humidity;BMP_temperature;BMP_pressure;BME280_temperature;BME280_humidity;BME280_pressure;Samples;Min_cycle;Max_cycle;Signal;HPM_P1;HPM_P2
2023/09/28 00:01:38;;;;;;;1.80;1.70;;;21.10;99.90;;;21.06;58.90;101017.25;4918559;28;103617;-50
2023/09/28 00:04:06;;;;;;;2.53;1.87;;;21.10;99.90;;;21.10;58.89;101021.44;4929660;28;101578;-48
2023/09/28 00:06:32;;;;;;;2.50;2.00;;;21.10;99.90;;;21.05;58.86;101012.88;4935040;28;97048;-49
2023/09/28 00:08:58;;;;;;;1.67;1.50;;;21.10;99.90;;;21.09;58.94;101016.19;4934852;28;97619;-47
2023/09/28 00:11:23;;;;;;;2.23;1.90;;;21.10;99.90;;;21.08;58.93;101023.38;4928051;28;98230;-51
2023/09/28 00:13:49;;;;;;;2.13;1.90;;;21.10;99.90;;;21.09;59.00;101025.06;4930816;28;97400;-46
2023/09/28 00:16:15;;;;;;;2.00;1.80;;;21.10;99.90;;;21.10;58.73;101026.78;4931408;28;107934;-46
2023/09/28 00:18:41;;;;;;;2.60;2.20;;;21.10;99.90;;;21.10;58.79;101037.53;4937667;28;97701;-47
2023/09/28 00:21:07;;;;;;;2.33;2.07;;;21.10;99.90;;;21.10;58.89;101037.53;4927219;28;97473;-49
2023/09/28 00:23:33;;;;;;;2.60;2.07;;;21.10;99.90;;;21.16;58.25;101051.47;4930374;28;108206;-47
2023/09/28 00:25:59;;;;;;;2.30;2.10;;;21.10;99.90;;;21.18;58.68;101060.25;4939807;28;100938;-49
2023/09/28 00:28:25;;;;;;;2.33;2.13;;;21.10;99.90;;;21.19;58.64;101057.44;4935734;28;96836;-47
2023/09/28 00:30:52;;;;;;;2.53;2.30;;;21.10;99.90;;;21.20;58.41;101063.69;4932450;28;97800;-48
2023/09/28 00:33:18;;;;;;;4.30;1.83;;;21.20;99.90;;;21.22;57.85;101083.19;4928231;28;97300;-48
2023/09/28 00:35:44;;;;;;;2.30;1.80;;;21.10;99.90;;;21.21;58.19;101092.22;4935778;28;97778;-46
2023/09/28 00:38:10;;;;;;;2.17;1.70;;;21.10;99.90;;;21.19;58.58;101104.88;4928777;28;97558;-46
2023/09/28 00:40:39;;;;;;;3.57;2.00;;;21.10;99.90;;;21.18;59.51;101113.91;4926117;28;97687;-49
2023/09/28 00:43:05;;;;;;;2.47;2.10;;;21.00;99.90;;;21.14;59.06;101102.56;4939416;28;102773;-46
2023/09/28 00:45:32;;;;;;;2.43;1.60;;;21.00;99.90;;;21.14;58.85;101104.38;4938167;28;97491;-46
2023/09/28 00:48:04;;;;;;;2.53;2.10;;;21.00;99.90;;;21.15;59.07;101098.03;4934961;28;104066;-46
2023/09/28 00:50:31;;;;;;;3.23;1.93;;;21.00;99.90;;;21.11;59.14;101116.16;4928554;28;101275;-52
2023/09/28 00:53:07;;;;;;;1.73;1.63;;;21.00;99.90;;;21.12;59.22;101104.50;4927610;28;98665;-47
2023/09/28 00:55:36;;;;;;;2.23;2.00;;;21.00;99.90;;;21.10;58.74;101107.25;4932182;28;97377;-49
2023/09/28 00:58:05;;;;;;;1.63;1.53;;;21.00;99.90;;;21.09;58.88;101097.50;4933988;28;96878;-48
2023/09/28 01:00:34;;;;;;;2.17;1.80;;;21.00;99.90;;;21.12;58.72;101103.59;4930925;28;102695;-47
2023/09/28 01:03:05;;;;;;;2.37;2.07;;;21.00;99.90;;;21.08;58.93;101086.88;4929705;28;100702;-50
2023/09/28 01:05:40;;;;;;;2.77;1.97;;;21.00;99.90;;;21.03;59.03;101081.00;4925732;28;97717;-48
2023/09/28 01:08:18;;;;;;;2.73;2.13;;;21.00;99.90;;;21.09;58.97;101094.81;4929883;28;97514;-46
2023/09/28 01:10:45;;;;;;;3.00;2.20;;;21.00;99.90;;;20.96;58.97;101072.53;4934820;28;102589;-49
2023/09/28 01:13:12;;;;;;;1.90;1.70;;;21.00;99.90;;;20.95;59.25;101080.69;4937306;28;97406;-50
2023/09/28 01:15:42;;;;;;;3.23;2.27;;;21.00;99.90;;;20.89;59.41;101065.91;4930018;28;97535;-48
2023/09/28 01:18:15;;;;;;;3.77;2.20;;;20.90;99.90;;;20.92;59.31;101081.78;4927393;28;98619;-47
2023/09/28 01:20:45;;;;;;;2.27;2.07;;;21.00;99.90;;;20.87;59.35;101067.84;4932029;28;103388;-51
2023/09/28 01:23:12;;;;;;;2.10;1.90;;;20.90;99.90;;;20.84;59.71;101060.03;4930009;28;101306;-47
2023/09/28 01:25:39;;;;;;;2.00;1.80;;;20.90;99.90;;;20.86;59.75;101060.78;4933866;28;97333;-50
2023/09/28 01:28:07;;;;;;;2.00;1.80;;;20.90;99.90;;;20.87;59.65;101049.09;4934384;28;97978;-55
2023/09/28 01:30:34;;;;;;;2.50;2.00;;;20.90;99.90;;;20.93;59.53;101054.00;4932581;28;97753;-48
2023/09/28 01:33:00;;;;;;;2.10;1.87;;;20.90;99.90;;;20.99;59.26;101056.25;4938286;28;97406;-48
2023/09/28 01:35:28;;;;;;;2.23;1.83;;;21.00;99.90;;;21.03;59.17;101057.72;4936623;28;100352;-49
2023/09/28 01:38:23;;;;;;;2.67;2.23;;;21.00;99.90;;;21.10;58.86;101061.66;4934568;28;97391;-49
2023/09/28 01:40:50;;;;;;;2.27;2.07;;;21.10;99.90;;;21.09;58.93;101068.00;4919414;28;102394;-46
2023/09/28 01:43:19;;;;;;;2.27;1.70;;;21.10;99.90;;;21.09;58.86;101067.13;4937599;28;96910;-50
2023/09/28 01:45:46;;;;;;;3.13;1.93;;;21.10;99.90;;;21.11;58.80;101065.19;4939201;28;97093;-51
2023/09/28 01:48:12;;;;;;;2.60;1.83;;;21.10;99.90;;;21.12;58.80;101055.31;4936052;28;97527;-50
2023/09/28 01:50:38;;;;;;;2.27;1.87;;;21.10;99.90;;;21.13;58.44;101062.44;4939888;28;99158;-46
2023/09/28 01:53:03;;;;;;;2.87;2.00;;;21.10;99.90;;;21.14;58.75;101058.78;4937857;28;98514;-51
2023/09/28 01:55:29;;;;;;;2.20;1.90;;;21.10;99.90;;;21.13;58.71;101057.06;4931200;28;97050;-48
2023/09/28 01:57:55;;;;;;;2.93;1.80;;;21.10;99.90;;;21.16;58.26;101062.19;4939038;28;97915;-50
2023/09/28 02:00:24;;;;;;;2.43;2.03;;;21.10;99.90;;;21.17;58.49;101061.22;4932304;28;122053;-49
2023/09/28 02:02:54;;;;;;;3.63;2.07;;;21.10;99.90;;;21.17;58.70;101069.28;4929023;28;98314;-47
2023/09/28 02:05:32;;;;;;;2.10;1.67;;;21.10;99.90;;;21.16;58.92;101068.41;4936765;28;97134;-49
2023/09/28 02:07:59;;;;;;;2.07;1.80;;;21.10;99.90;;;21.17;58.96;101074.63;4935955;28;97004;-47
2023/09/28 02:10:25;;;;;;;1.73;1.60;;;21.10;99.90;;;21.15;58.72;101073.91;4938898;28;99162;-47
2023/09/28 02:12:51;;;;;;;3.63;1.80;;;21.10;99.90;;;21.16;58.75;101078.28;4936983;28;97831;-47
2023/09/28 02:15:17;;;;;;;1.80;1.70;;;21.10;99.90;;;21.16;58.67;101072.94;4940018;28;112472;-51
2023/09/28 02:17:44;;;;;;;1.83;1.57;;;21.10;99.90;;;21.15;58.54;101079.25;4936288;28;97393;-47
2023/09/28 02:20:11;;;;;;;2.50;1.50;;;21.10;99.90;;;21.14;58.80;101086.44;4941902;28;102908;-51
2023/09/28 02:22:43;;;;;;;3.73;2.37;;;21.10;99.90;;;21.13;59.10;101083.88;4942099;28;98219;-48
2023/09/28 02:25:15;;;;;;;1.63;1.53;;;21.00;99.90;;;21.08;59.76;101077.00;4935441;28;96992;-47
2023/09/28 02:27:42;;;;;;;2.23;1.60;;;20.90;99.90;;;21.04;59.45;101086.25;4935467;28;97717;-56
2023/09/28 02:30:11;;;;;;;3.13;1.80;;;20.90;99.90;;;21.02;59.03;101087.34;4937502;28;97824;-54
2023/09/28 02:32:39;;;;;;;3.90;2.00;;;20.90;99.90;;;21.03;59.14;101084.53;4932703;28;101937;-50
2023/09/28 02:35:09;;;;;;;2.47;1.77;;;20.90;99.90;;;21.02;59.33;101096.25;4935102;28;97022;-45
2023/09/28 02:37:35;;;;;;;1.90;1.70;;;20.90;99.90;;;21.02;59.09;101093.56;4943760;28;97382;-48
2023/09/28 02:40:05;;;;;;;1.80;1.60;;;20.90;99.90;;;21.04;58.97;101096.97;4933247;28;97598;-49
2023/09/28 02:42:32;;;;;;;1.70;1.60;;;20.90;99.90;;;21.05;59.01;101096.00;4928371;28;97571;-50
2023/09/28 02:44:58;;;;;;;2.30;2.10;;;21.00;99.90;;;21.07;58.97;101099.44;4935231;28;97710;-48
2023/09/28 02:47:24;;;;;;;1.67;1.57;;;21.00;99.90;;;21.06;58.96;101100.41;4938655;28;97381;-45
2023/09/28 02:49:51;;;;;;;1.40;1.30;;;21.00;99.90;;;21.05;58.92;101098.69;4930027;28;119218;-49
2023/09/28 02:52:17;;;;;;;2.43;2.10;;;21.00;99.90;;;21.05;59.10;101109.41;4935936;28;97562;-46
2023/09/28 02:54:43;;;;;;;2.30;1.90;;;20.90;99.90;;;21.00;59.33;101106.22;4942975;28;97381;-49
2023/09/28 02:57:10;;;;;;;2.13;1.77;;;20.90;99.90;;;20.98;59.46;101102.81;4938717;28;97412;-47
2023/09/28 02:59:36;;;;;;;1.80;1.70;;;20.80;99.90;;;20.98;59.43;101108.16;4935971;28;97910;-48
2023/09/28 03:02:03;;;;;;;2.60;1.97;;;20.80;99.90;;;20.95;59.22;101094.09;4939313;28;98209;-48
2023/09/28 03:04:33;;;;;;;2.13;1.87;;;20.90;99.90;;;20.97;59.35;101098.38;4936222;28;97448;-48
2023/09/28 03:06:59;;;;;;;1.63;1.47;;;20.90;99.90;;;20.99;59.10;101109.88;4937146;28;97894;-52
2023/09/28 03:09:26;;;;;;;2.23;1.63;;;20.90;99.90;;;21.01;59.16;101112.44;4941254;28;98059;-47
2023/09/28 03:11:53;;;;;;;1.70;1.60;;;20.90;99.90;;;21.01;59.10;101107.94;4937648;28;97114;-48
2023/09/28 03:14:21;;;;;;;2.30;1.80;;;20.90;99.90;;;21.04;58.77;101113.06;4938101;28;97258;-47
2023/09/28 03:16:47;;;;;;;1.90;1.77;;;21.00;99.90;;;21.02;59.08;101106.97;4937961;28;97472;-47
2023/09/28 03:19:13;;;;;;;2.03;1.73;;;20.90;99.90;;;21.01;58.69;101107.94;4936893;28;97116;-47
2023/09/28 03:21:42;;;;;;;2.70;2.20;;;20.90;99.90;;;20.99;59.07;101109.03;4938831;28;97353;-48
2023/09/28 03:24:10;;;;;;;1.83;1.57;;;20.80;99.90;;;20.96;59.20;101109.22;4939632;28;97554;-46
2023/09/28 03:26:37;;;;;;;1.87;1.70;;;20.80;99.90;;;20.95;59.31;101113.72;4941265;28;97368;-53
2023/09/28 03:29:03;;;;;;;2.33;1.60;;;20.80;99.90;;;20.96;59.20;101115.44;4935759;28;97318;-47
2023/09/28 03:31:29;;;;;;;2.40;2.17;;;20.80;99.90;;;20.97;58.79;101125.19;4928172;28;97472;-46
2023/09/28 03:33:55;;;;;;;1.83;1.63;;;20.80;99.90;;;20.94;59.25;101125.41;4934636;28;99051;-46
2023/09/28 03:36:24;;;;;;;2.00;1.80;;;20.80;99.90;;;20.94;59.32;101128.09;4935384;28;98154;-50
2023/09/28 03:38:50;;;;;;;2.27;1.93;;;20.80;99.90;;;20.93;59.32;101121.03;4933866;28;97562;-47
2023/09/28 03:41:17;;;;;;;3.00;2.37;;;20.80;99.90;;;20.93;58.87;101131.75;4939858;28;97933;-48
2023/09/28 03:43:44;;;;;;;2.93;2.10;;;20.80;99.90;;;20.91;59.46;101127.47;4932768;28;97444;-48
2023/09/28 03:46:11;;;;;;;2.20;1.77;;;20.70;99.90;;;20.89;59.58;101134.78;4931233;28;97236;-51
2023/09/28 03:48:37;;;;;;;2.17;1.77;;;20.70;99.90;;;20.89;59.48;101132.94;4942518;28;97538;-46
2023/09/28 03:51:03;;;;;;;2.03;1.33;;;20.70;99.90;;;20.88;59.57;101139.28;4926369;28;97262;-48
2023/09/28 03:53:32;;;;;;;1.70;1.53;;;20.70;99.90;;;20.88;59.55;101143.78;4942839;28;97179;-48
2023/09/28 03:55:58;;;;;;;1.83;1.50;;;20.80;99.90;;;20.89;59.54;101154.41;4937275;28;97639;-49
2023/09/28 03:58:24;;;;;;;1.83;1.50;;;20.80;99.90;;;20.89;59.46;101151.72;4932284;28;97397;-46
2023/09/28 04:00:50;;;;;;;2.47;1.70;;;20.80;99.90;;;20.91;59.46;101149.78;4927660;28;97480;-47
2023/09/28 04:03:16;;;;;;;2.23;1.50;;;20.80;99.90;;;20.92;59.32;101151.50;4918928;28;97486;-49
2023/09/28 04:05:42;;;;;;;1.97;1.70;;;20.80;99.90;;;20.92;59.44;101145.28;4936048;28;97001;-49
2023/09/28 04:08:07;;;;;;;1.60;1.50;;;20.80;99.90;;;20.93;59.51;101153.19;4940592;28;97843;-50
2023/09/28 04:10:33;;;;;;;2.57;1.70;;;20.80;99.90;;;20.93;59.29;101147.84;4937346;28;99490;-48
2023/09/28 04:13:03;;;;;;;1.53;1.43;;;20.80;99.90;;;20.94;59.40;101144.19;4934166;28;97191;-50
2023/09/28 04:15:30;;;;;;;3.77;1.57;;;20.80;99.90;;;20.95;59.40;101151.28;4928402;28;97507;-47
2023/09/28 04:17:56;;;;;;;1.87;1.57;;;20.90;99.90;;;20.95;59.40;101150.41;4941278;28;98428;-46
2023/09/28 04:20:21;;;;;;;3.00;2.10;;;20.90;99.90;;;20.93;59.04;101158.56;4938379;28;115386;-49
2023/09/28 04:22:47;;;;;;;1.70;1.40;;;20.80;99.90;;;20.90;59.12;101169.53;4934083;28;101260;-49
2023/09/28 04:25:13;;;;;;;1.50;1.40;;;20.70;99.90;;;20.87;59.61;101169.75;4929421;28;97875;-47
2023/09/28 04:27:39;;;;;;;1.53;1.40;;;20.80;99.90;;;20.87;59.49;101177.78;4935264;28;97489;-52
2023/09/28 04:30:08;;;;;;;1.80;1.70;;;20.70;99.90;;;20.89;59.70;101183.03;4940718;28;102060;-46
2023/09/28 04:32:35;;;;;;;1.90;1.70;;;20.80;99.90;;;20.89;59.54;101178.53;4936284;28;97641;-47
2023/09/28 04:35:06;;;;;;;1.73;1.53;;;20.80;99.90;;;20.90;59.23;101180.25;4939626;28;97487;-47
2023/09/28 04:37:32;;;;;;;1.83;1.70;;;20.80;99.90;;;20.90;59.30;101174.88;4939041;28;99309;-51
2023/09/28 04:39:58;;;;;;;1.57;1.47;;;20.80;99.90;;;20.91;59.51;101181.97;4941664;28;97623;-49
2023/09/28 04:42:24;;;;;;;1.73;1.30;;;20.80;99.90;;;20.91;59.55;101179.28;4935741;28;104163;-45
2023/09/28 04:44:49;;;;;;;2.73;2.00;;;20.80;99.90;;;20.91;58.70;101187.31;4933599;28;101078;-48
2023/09/28 04:47:16;;;;;;;1.97;1.47;;;20.80;99.90;;;20.90;59.53;101182.94;4934436;28;97484;-46
2023/09/28 04:49:42;;;;;;;1.80;1.50;;;20.80;99.90;;;20.90;59.70;101190.97;4933158;28;96978;-47
2023/09/28 04:52:10;;;;;;;2.13;1.60;;;20.80;99.90;;;20.91;59.35;101183.78;4941696;28;102456;-53
2023/09/28 04:54:36;;;;;;;1.60;1.50;;;20.80;99.90;;;20.93;59.47;101187.22;4937193;28;97113;-47
2023/09/28 04:57:02;;;;;;;1.63;1.53;;;20.80;99.90;;;20.93;59.50;101185.38;4944442;22;98621;-71
2023/09/28 04:59:40;;;;;;;2.97;2.00;;;20.80;99.90;;;20.93;59.49;101185.38;4954375;28;96664;-71
2023/09/28 05:02:07;;;;;;;2.40;1.67;;;20.80;99.90;;;20.90;59.44;101179.38;4954374;28;97582;-71
2023/09/28 05:04:33;;;;;;;1.70;1.60;;;20.90;99.90;;;20.93;59.26;101185.38;4961407;28;97600;-71
2023/09/28 05:06:59;;;;;;;1.77;1.57;;;20.90;99.90;;;20.95;59.24;101183.44;4958160;28;97617;-70
2023/09/28 05:09:27;;;;;;;2.67;1.53;;;20.90;99.90;;;20.96;59.47;101185.16;4946308;28;97180;-71
2023/09/28 05:11:53;;;;;;;2.27;1.90;;;20.90;99.90;;;20.95;59.48;101191.50;4956571;28;97031;-71
2023/09/28 05:14:24;;;;;;;2.53;1.73;;;20.90;99.90;;;20.94;59.27;101195.13;4943570;28;98094;-71
2023/09/28 05:16:51;;;;;;;2.30;1.87;;;20.90;99.90;;;20.97;58.79;101197.59;4951248;28;101056;-71
2023/09/28 05:19:18;;;;;;;2.60;2.20;;;20.90;99.90;;;20.96;58.90;101201.25;4950893;28;97317;-71
2023/09/28 05:21:43;;;;;;;2.37;1.60;;;20.80;99.90;;;20.95;59.56;101199.53;4967411;28;97431;-71
2023/09/28 05:24:10;;;;;;;2.13;1.80;;;20.80;99.90;;;20.91;59.36;101213.28;4959415;28;97260;-70
2023/09/28 05:26:37;;;;;;;1.90;1.67;;;20.70;99.90;;;20.89;59.48;101215.22;4948404;28;102289;-70
2023/09/28 05:29:03;;;;;;;2.00;1.50;;;20.70;99.90;;;20.88;59.69;101219.72;4950143;28;97067;-70
2023/09/28 05:31:30;;;;;;;2.17;1.57;;;20.80;99.90;;;20.90;59.21;101207.06;4955489;28;99079;-71
2023/09/28 05:33:56;;;;;;;1.77;1.47;;;20.80;99.90;;;20.90;59.46;101201.69;4956830;28;97382;-71
2023/09/28 05:36:22;;;;;;;3.30;2.10;;;20.80;99.90;;;20.90;59.67;101199.00;4954603;28;99640;-71
2023/09/28 05:38:48;;;;;;;1.90;1.67;;;20.80;99.90;;;20.92;59.38;101199.75;4956624;28;106802;-71
2023/09/28 05:41:13;;;;;;;2.17;1.90;;;20.90;99.90;;;20.92;59.40;101189.03;4962765;28;101255;-70
2023/09/28 05:43:39;;;;;;;1.57;1.40;;;20.80;99.90;;;20.93;59.40;101190.75;4957692;28;96950;-71
2023/09/28 05:46:06;;;;;;;1.50;1.40;;;20.90;99.90;;;20.96;59.38;101195.03;4960787;28;100357;-70
2023/09/28 05:48:32;;;;;;;2.67;1.73;;;20.90;99.90;;;20.96;59.53;101195.03;4953849;28;97450;-71
2023/09/28 05:50:58;;;;;;;1.73;1.40;;;20.90;99.90;;;20.97;59.47;101202.97;4961813;28;97562;-70
2023/09/28 05:53:24;;;;;;;1.53;1.23;;;20.90;99.90;;;20.96;59.30;101201.25;4955750;28;97384;-71
2023/09/28 05:55:51;;;;;;;1.90;1.53;;;20.90;99.90;;;20.96;59.32;101211.97;4953689;28;97638;-71
2023/09/28 05:58:17;;;;;;;2.10;1.60;;;20.90;99.90;;;20.94;59.20;101208.53;4962076;28;101324;-71
2023/09/28 06:00:43;;;;;;;3.13;2.23;;;20.80;99.90;;;20.91;59.24;101216.81;4956007;28;96647;-71
2023/09/28 06:03:09;;;;;;;3.40;2.43;;;20.80;99.90;;;20.86;59.08;101229.69;4960635;28;97094;-71
2023/09/28 06:05:35;;;;;;;3.63;2.80;;;20.70;99.90;;;20.79;59.76;101241.78;4952118;28;97590;-71
2023/09/28 06:08:01;;;;;;;1.90;1.70;;;20.50;99.90;;;20.72;60.07;101245.88;4968494;28;97035;-71
2023/09/28 06:10:27;;;;;;;3.57;1.90;;;20.40;99.90;;;20.69;60.35;101262.19;5009632;22;108135;-73
2023/09/28 06:12:54;;;;;;;1.90;1.70;;;20.40;99.90;;;20.68;60.42;101253.25;4921536;28;97310;-74
2023/09/28 06:15:19;;;;;;;2.47;1.70;;;20.40;99.90;;;20.70;60.39;101269.25;4926359;28;98679;-74
2023/09/28 06:17:45;;;;;;;1.70;1.60;;;20.50;99.90;;;20.72;60.13;101261.97;4911797;28;98324;-74
2023/09/28 06:20:11;;;;;;;1.43;1.33;;;20.50;99.90;;;20.76;60.15;101271.50;4906255;28;99965;-74
2023/09/28 06:22:37;;;;;;;1.73;1.50;;;20.60;99.90;;;20.78;60.15;101269.56;4903497;28;96973;-73
2023/09/28 06:25:04;;;;;;;1.53;1.43;;;20.70;99.90;;;20.81;59.96;101280.06;4912515;28;97395;-74
2023/09/28 06:27:30;;;;;;;1.77;1.57;;;20.70;99.90;;;20.84;59.84;101271.84;4904238;28;99206;-74
2023/09/28 06:29:56;;;;;;;1.83;1.67;;;20.80;99.90;;;20.84;59.97;101271.84;4908094;28;97725;-74
2023/09/28 06:32:22;;;;;;;1.70;1.60;;;20.80;99.90;;;20.87;59.71;101268.94;4893903;28;97464;-75
2023/09/28 06:34:48;;;;;;;2.10;1.90;;;20.90;99.90;;;20.89;59.73;101280.41;4899119;28;98116;-74
2023/09/28 06:37:15;;;;;;;1.90;1.33;;;20.90;99.90;;;20.92;59.66;101284.72;4907970;28;102645;-73
2023/09/28 06:39:41;;;;;;;1.80;1.60;;;20.90;99.90;;;20.93;59.52;101281.91;4896424;28;97463;-72
2023/09/28 06:42:07;;;;;;;1.47;1.37;;;20.90;99.90;;;20.96;59.49;101281.69;4893549;28;96946;-73
2023/09/28 06:44:34;;;;;;;2.03;1.47;;;20.90;99.90;;;20.96;59.56;101276.34;4851138;28;97736;-72
2023/09/28 06:47:13;;;;;;;1.40;1.30;;;20.90;99.90;;;20.99;59.31;101281.50;4835683;28;99069;-72
2023/09/28 06:49:39;;;;;;;1.50;1.40;;;21.00;99.90;;;20.99;59.48;101284.19;4810448;28;98299;-71
2023/09/28 06:52:06;;;;;;;1.80;1.60;;;21.00;99.90;;;21.01;59.46;101290.31;4868754;28;97007;-73
2023/09/28 06:54:32;;;;;;;2.10;1.47;;;21.00;99.90;;;21.01;59.40;101284.94;4900941;28;97490;-72
2023/09/28 06:56:58;;;;;;;1.67;1.50;;;21.00;99.90;;;21.02;59.28;101288.47;4909307;28;97390;-72
2023/09/28 06:59:25;;;;;;;2.47;1.73;;;21.00;99.90;;;21.02;59.30;101297.38;4906893;28;109005;-72
2023/09/28 07:01:51;;;;;;;2.07;1.40;;;21.00;99.90;;;21.02;59.52;101294.69;4900614;28;96767;-72
2023/09/28 07:04:17;;;;;;;12.17;2.93;;;21.00;99.90;;;21.06;59.50;101324.84;4894703;28;102341;-72
2023/09/28 07:06:43;;;;;;;2.00;1.53;;;21.00;99.90;;;21.04;59.20;101316.91;4919026;28;97889;-72
2023/09/28 07:09:09;;;;;;;1.80;1.70;;;21.00;99.90;;;21.03;59.16;101320.56;4906474;28;97585;-72
2023/09/28 07:11:35;;;;;;;3.57;2.03;;;21.00;99.90;;;21.05;59.24;101312.41;4882357;28;98001;-72
2023/09/28 07:14:01;;;;;;;2.50;1.87;;;21.00;99.90;;;21.03;59.18;101315.19;4887115;28;98080;-72
2023/09/28 07:16:27;;;;;;;7.10;2.43;;;21.00;99.90;;;21.07;59.61;101319.38;4861080;28;97446;-72
2023/09/28 07:18:59;;;;;;;2.53;1.50;;;21.00;99.90;;;21.05;59.24;101324.00;4844173;28;97665;-73
2023/09/28 07:21:25;;;;;;;2.47;1.67;;;21.00;99.90;;;21.05;59.25;101312.41;4858565;28;98765;-72
2023/09/28 07:23:51;;;;;;;3.47;2.80;;;21.00;99.90;;;21.05;59.96;101313.25;4867172;28;97969;-72
2023/09/28 07:26:22;;;;;;;2.53;1.70;;;21.00;99.90;;;21.03;59.38;101323.25;4882735;28;103296;-73
2023/09/28 07:28:48;;;;;;;3.17;1.53;;;20.90;99.90;;;21.04;59.25;101326.78;4877910;28;97539;-72
2023/09/28 07:31:15;;;;;;;2.20;2.00;;;21.00;99.90;;;21.02;59.30;101324.19;4883440;28;98154;-73
2023/09/28 07:33:43;;;;;;;1.97;1.50;;;21.00;99.90;;;21.04;59.22;101327.63;4871685;28;98222;-73
2023/09/28 07:36:09;;;;;;;2.60;1.40;;;21.00;99.90;;;21.03;59.19;101320.56;4869614;28;100217;-72
2023/09/28 07:38:35;;;;;;;2.10;1.50;;;21.00;99.90;;;21.04;59.15;101324.94;4870157;28;100358;-72
2023/09/28 07:41:08;;;;;;;2.40;1.67;;;21.00;99.90;;;21.06;59.11;101331.06;4865382;28;101870;-72
2023/09/28 07:43:35;;;;;;;1.53;1.37;;;21.00;99.90;;;21.09;58.95;101341.56;4852399;28;99293;-72
2023/09/28 07:46:01;;;;;;;2.27;1.53;;;21.10;99.90;;;21.08;59.27;101339.84;4851678;28;99225;-72
2023/09/28 07:48:28;;;;;;;4.67;2.43;;;21.10;99.90;;;21.13;59.97;101346.75;4832312;28;98073;-72
2023/09/28 07:50:54;;;;;;;3.43;1.77;;;21.10;99.90;;;21.13;58.98;101352.13;4835768;28;98804;-74
2023/09/28 07:53:20;;;;;;;1.80;1.70;;;21.10;99.90;;;21.12;59.00;101350.38;4882448;28;102264;-72
2023/09/28 07:55:46;;;;;;;3.47;2.00;;;21.10;99.90;;;21.16;60.04;101351.91;4895993;28;101480;-73
2023/09/28 07:58:15;;;;;;;1.63;1.37;;;21.10;99.90;;;21.15;59.01;101355.56;4866036;28;97913;-73
2023/09/28 08:00:42;;;;;;;2.20;1.70;;;21.10;99.90;;;21.17;59.24;101364.34;4870013;28;97497;-72
2023/09/28 08:03:08;;;;;;;2.53;2.03;;;21.10;99.90;;;21.18;59.34;101368.75;4880779;28;98560;-72
2023/09/28 08:05:36;;;;;;;9.43;3.40;;;21.10;99.90;;;21.19;61.30;101362.41;4866431;28;97119;-72
2023/09/28 08:08:03;;;;;;;5.23;2.40;;;21.10;99.90;;;21.18;60.19;101363.38;4862727;28;97553;-72
2023/09/28 08:10:29;;;;;;;4.37;2.20;;;21.10;99.90;;;21.17;61.66;101361.66;4849274;28;97528;-72
2023/09/28 08:12:55;;;;;;;5.37;2.80;;;21.10;99.90;;;21.17;62.79;101356.31;4849727;28;97534;-72
2023/09/28 08:15:22;;;;;;;4.97;2.80;;;21.10;99.90;;;21.16;62.47;101349.22;4796772;28;100012;-72
2023/09/28 08:17:48;;;;;;;5.83;2.47;;;21.10;99.90;;;21.16;63.50;101347.41;4866751;28;97096;-72
2023/09/28 08:20:15;;;;;;;6.10;3.17;;;21.10;99.90;;;21.17;63.54;101351.78;4865102;28;100929;-75
2023/09/28 08:22:46;;;;;;;4.37;2.20;;;21.10;99.90;;;21.16;61.21;101346.53;4891455;28;98728;-73
2023/09/28 08:25:14;;;;;;;4.03;2.63;;;21.10;99.90;;;21.18;64.71;101344.59;4876908;28;100844;-73
2023/09/28 08:27:44;;;;;;;3.70;2.37;;;21.10;99.90;;;21.17;64.58;101345.56;4867127;28;97469;-72
2023/09/28 08:30:11;;;;;;;4.37;2.57;;;21.10;99.90;;;21.16;63.74;101341.16;4861485;28;97302;-72
2023/09/28 08:32:37;;;;;;;3.47;2.40;;;21.10;99.90;;;21.17;63.57;101353.63;4856496;28;100091;-72
2023/09/28 08:35:05;;;;;;;5.30;2.30;;;21.10;99.90;;;21.20;65.00;101358.75;4827662;28;99319;-72
2023/09/28 08:37:31;;;;;;;3.90;2.07;;;21.20;99.90;;;21.19;62.68;101367.78;4831545;28;97186;-74
2023/09/28 08:39:57;;;;;;;4.70;2.47;;;21.20;99.90;;;21.19;63.25;101365.09;4875155;28;99642;-74
2023/09/28 08:42:30;;;;;;;4.47;2.50;;;21.20;99.90;;;21.22;63.12;101372.94;4875649;28;97431;-72
2023/09/28 08:45:01;;;;;;;4.93;2.63;;;21.20;99.90;;;21.23;63.11;101374.63;4866007;28;100890;-72
2023/09/28 08:47:32;;;;;;;3.87;1.90;;;21.20;99.90;;;21.22;62.75;101378.28;4876478;28;97059;-73
2023/09/28 08:49:58;;;;;;;4.77;2.33;;;21.20;99.90;;;21.24;63.08;101373.69;4868128;28;97640;-72
2023/09/28 08:52:27;;;;;;;4.27;2.13;;;21.20;99.90;;;21.25;62.00;101378.09;4885189;28;98590;-72
2023/09/28 08:54:54;;;;;;;2.20;1.90;;;21.30;99.90;;;21.25;61.97;101387.00;4876624;28;101214;-72
2023/09/28 08:57:20;;;;;;;6.63;2.23;;;21.30;99.90;;;21.26;62.39;101387.88;4880363;28;97068;-73
2023/09/28 08:59:48;;;;;;;5.00;2.60;;;21.30;99.90;;;21.27;62.36;101389.63;4883264;28;97639;-74
2023/09/28 09:02:16;;;;;;;3.33;2.20;;;21.30;99.90;;;21.30;63.29;101398.31;4872421;28;102036;-72
2023/09/28 09:04:42;;;;;;;7.50;2.30;;;21.30;99.90;;;21.29;62.16;101401.09;4872222;28;101378;-73
2023/09/28 09:07:08;;;;;;;3.40;1.87;;;21.30;99.90;;;21.29;62.11;101401.09;4883769;28;98536;-72
2023/09/28 09:09:35;;;;;;;3.80;2.47;;;21.30;99.90;;;21.31;62.24;101404.53;4874594;28;97648;-73
2023/09/28 09:12:09;;;;;;;4.17;2.40;;;21.30;99.90;;;21.30;62.30;101402.81;4870788;28;100779;-71
2023/09/28 09:14:35;;;;;;;3.10;2.03;;;21.30;99.90;;;21.32;63.30;101406.25;4883214;28;99185;-72
2023/09/28 09:17:02;;;;;;;4.37;2.20;;;21.30;99.90;;;21.33;63.80;101403.47;4877941;28;98334;-72
2023/09/28 09:19:32;;;;;;;4.60;2.30;;;21.30;99.90;;;21.34;62.85;101398.94;4887779;28;97166;-71
2023/09/28 09:21:58;;;;;;;4.00;2.17;;;21.30;99.90;;;21.32;62.37;101395.50;4887251;28;96915;-72
2023/09/28 09:24:25;;;;;;;4.07;2.27;;;21.30;99.90;;;21.25;62.54;101394.22;4890353;28;97787;-73
2023/09/28 09:26:55;;;;;;;4.80;2.07;;;21.30;99.90;;;21.29;63.24;101401.09;4880609;28;99728;-76
2023/09/28 09:29:23;;;;;;;6.60;1.90;;;21.30;99.90;;;21.33;63.73;101397.22;4885724;28;97686;-71
2023/09/28 09:31:51;;;;;;;5.57;2.40;;;21.30;99.90;;;21.35;64.35;101406.03;4891945;28;99716;-72
2023/09/28 09:34:19;;;;;;;4.77;1.67;;;21.30;99.90;;;21.36;63.63;101418.47;4865377;28;101968;-73
2023/09/28 09:36:57;;;;;;;3.47;2.10;;;21.30;99.90;;;21.37;64.15;101409.47;4874750;28;98573;-73
2023/09/28 09:39:30;;;;;;;3.70;1.77;;;21.40;99.90;;;21.38;64.46;101413.88;4882612;28;98222;-72
2023/09/28 09:42:00;;;;;;;6.33;2.43;;;21.40;99.90;;;21.37;62.12;101412.16;4886050;28;101804;-72
2023/09/28 09:44:29;;;;;;;4.07;2.40;;;21.40;99.90;;;21.37;63.93;101420.19;4884329;28;102782;-71
2023/09/28 09:46:57;;;;;;;6.13;2.50;;;21.40;99.90;;;21.38;62.58;101405.81;4874530;28;97872;-72
2023/09/28 09:49:24;;;;;;;3.30;2.20;;;21.40;99.90;;;21.39;62.85;101410.22;4884931;28;97693;-72
2023/09/28 09:51:52;;;;;;;4.13;2.10;;;21.40;99.90;;;21.39;63.57;101415.59;4877432;28;98187;-73
2023/09/28 09:54:20;;;;;;;5.20;2.63;;;21.40;99.90;;;21.43;64.75;101424.31;4875046;28;101707;-72
2023/09/28 09:56:51;;;;;;;2.77;2.30;;;21.40;99.90;;;21.41;61.68;101408.31;4877715;28;98901;-73
2023/09/28 09:59:22;;;;;;;3.73;2.10;;;21.40;99.90;;;21.43;63.05;101406.38;4868689;28;97675;-70
2023/09/28 10:01:52;;;;;;;3.93;2.53;;;21.40;99.90;;;21.43;63.34;101409.06;4895163;28;102126;-72
2023/09/28 10:04:20;;;;;;;3.27;2.00;;;21.50;99.90;;;21.43;62.12;101410.88;4828780;28;102080;-73
2023/09/28 10:06:58;;;;;;;3.90;2.57;;;21.50;99.90;;;21.45;63.46;101412.50;4898236;28;97680;-72
2023/09/28 10:09:25;;;;;;;4.00;2.67;;;21.50;99.90;;;21.46;64.44;101419.56;4883175;28;98242;-72
2023/09/28 10:11:51;;;;;;;4.87;2.37;;;21.50;99.90;;;21.44;62.78;101426.88;4880734;28;97298;-71